createdAt,value
2018-12-24T00:01:13.093Z,1.20
2018-12-24T00:03:42.506Z,1.20
2018-12-24T00:06:12.103Z,1.70
2018-12-24T00:08:41.515Z,2.17
2018-12-24T00:11:11.386Z,1.83
2018-12-24T00:13:40.529Z,1.87
2018-12-24T00:16:10.117Z,2.50
2018-12-24T00:18:39.509Z,2.10
2018-12-24T00:21:09.378Z,2.53
2018-12-24T00:23:39.008Z,2.40
2018-12-24T00:26:08.400Z,2.57
2018-12-24T00:28:38.350Z,2.87
2018-12-24T00:31:08.024Z,2.93
2018-12-24T00:33:38.158Z,2.87
2018-12-24T00:36:07.818Z,3.47
2018-12-24T00:38:36.965Z,2.67
2018-12-24T00:41:06.602Z,3.50
2018-12-24T00:43:36.299Z,2.93
2018-12-24T00:46:05.478Z,2.63
2018-12-24T00:48:35.109Z,2.77
2018-12-24T00:51:04.498Z,3.00
2018-12-24T00:53:33.686Z,3.10
2018-12-24T00:56:03.263Z,2.67
2018-12-24T00:58:32.411Z,4.30
2018-12-24T01:01:01.785Z,3.53
2018-12-24T01:03:30.989Z,4.37
2018-12-24T01:06:00.647Z,4.97
2018-12-24T01:08:30.038Z,4.93
2018-12-24T01:10:59.409Z,5.33
2018-12-24T01:13:29.328Z,5.97
2018-12-24T01:15:58.706Z,5.57
2018-12-24T01:18:28.302Z,6.03
2018-12-24T01:20:57.734Z,6.43
2018-12-24T01:23:27.158Z,5.23
2018-12-24T01:25:56.819Z,6.30
2018-12-24T01:28:26.073Z,7.20
2018-12-24T01:30:55.737Z,6.47
2018-12-24T01:33:25.374Z,6.27
2018-12-24T01:35:54.534Z,5.80
2018-12-24T01:38:24.410Z,6.10
2018-12-24T01:40:53.536Z,5.30
2018-12-24T01:43:22.956Z,5.60
2018-12-24T01:45:52.341Z,5.50
2018-12-24T01:48:22.025Z,6.03
2018-12-24T01:50:51.189Z,6.00
2018-12-24T01:53:20.826Z,6.03
2018-12-24T01:55:50.180Z,5.90
2018-12-24T01:58:19.797Z,5.50
2018-12-24T02:00:49.145Z,6.07
2018-12-24T02:03:18.554Z,5.60
2018-12-24T02:05:48.166Z,6.10
2018-12-24T02:08:17.539Z,6.30
2018-12-24T02:10:47.174Z,6.47
2018-12-24T02:13:16.584Z,7.30
2018-12-24T02:15:45.725Z,8.00
2018-12-24T02:18:14.857Z,8.17
2018-12-24T02:20:44.273Z,7.80
2018-12-24T02:23:13.430Z,8.40
2018-12-24T02:25:42.808Z,9.10
2018-12-24T02:28:12.398Z,7.03
2018-12-24T02:30:42.250Z,8.20
2018-12-24T02:33:11.641Z,7.87
2018-12-24T02:35:41.269Z,7.93
2018-12-24T02:38:10.876Z,8.37
2018-12-24T02:40:40.550Z,8.07
2018-12-24T02:43:10.173Z,7.07
2018-12-24T02:45:39.590Z,7.50
2018-12-24T02:48:08.699Z,7.50
2018-12-24T02:50:38.556Z,8.13
2018-12-24T02:53:07.688Z,8.03
2018-12-24T02:55:37.070Z,7.73
2018-12-24T02:58:06.778Z,8.20
2018-12-24T03:00:36.150Z,8.27
2018-12-24T03:03:05.969Z,8.20
2018-12-24T03:05:35.622Z,7.97
2018-12-24T03:08:04.731Z,7.97
2018-12-24T03:10:33.954Z,7.27
2018-12-24T03:13:03.355Z,7.67
2018-12-24T03:15:33.054Z,7.70
2018-12-24T03:18:02.171Z,7.37
2018-12-24T03:20:31.706Z,7.77
2018-12-24T03:23:01.486Z,8.00
2018-12-24T03:25:30.614Z,8.00
2018-12-24T03:27:59.761Z,8.53
2018-12-24T03:30:29.500Z,8.10
2018-12-24T03:32:58.610Z,8.70
2018-12-24T03:35:27.978Z,8.30
2018-12-24T03:37:57.572Z,8.37
2018-12-24T03:40:27.561Z,9.37
2018-12-24T03:42:57.358Z,8.63
2018-12-24T03:45:26.962Z,8.50
2018-12-24T03:47:57.091Z,8.10
2018-12-24T03:50:26.445Z,8.53
2018-12-24T03:52:55.558Z,9.40
2018-12-24T03:55:24.937Z,8.70
2018-12-24T03:57:54.791Z,7.50
2018-12-24T04:00:24.168Z,9.10
2018-12-24T04:02:53.604Z,8.00
2018-12-24T04:05:22.865Z,7.73
2018-12-24T04:07:52.234Z,8.43
2018-12-24T04:10:21.585Z,8.63
2018-12-24T04:12:51.029Z,8.10
2018-12-24T04:15:20.389Z,7.73
2018-12-24T04:17:49.505Z,8.77
2018-12-24T04:20:18.940Z,8.30
2018-12-24T04:22:48.069Z,7.90
2018-12-24T04:25:17.221Z,8.00
2018-12-24T04:27:46.809Z,8.00
2018-12-24T04:30:15.921Z,7.77
2018-12-24T04:32:45.306Z,7.50
2018-12-24T04:35:14.450Z,8.00
2018-12-24T04:37:44.096Z,8.30
2018-12-24T04:40:13.225Z,8.40
2018-12-24T04:42:42.632Z,7.93
2018-12-24T04:45:11.763Z,8.20
2018-12-24T04:47:41.106Z,8.20
2018-12-24T04:50:10.943Z,7.47
2018-12-24T04:52:40.320Z,8.10
2018-12-24T04:55:09.934Z,7.50
2018-12-24T04:57:39.287Z,7.57
2018-12-24T05:00:08.518Z,7.23
2018-12-24T05:02:37.941Z,7.00
2018-12-24T05:05:07.339Z,7.93
2018-12-24T05:07:36.689Z,6.60
2018-12-24T05:10:05.994Z,6.73
2018-12-24T05:12:35.383Z,5.63
2018-12-24T05:15:04.908Z,5.60
2018-12-24T05:17:34.566Z,5.27
2018-12-24T05:20:03.722Z,5.50
2018-12-24T05:22:33.078Z,5.17
2018-12-24T05:25:02.482Z,5.63
2018-12-24T05:27:31.822Z,6.20
2018-12-24T05:30:01.411Z,6.40
2018-12-24T05:32:30.802Z,5.40
2018-12-24T05:35:00.176Z,6.20
2018-12-24T05:37:29.854Z,5.93
2018-12-24T05:39:59.302Z,5.10
2018-12-24T05:42:28.894Z,5.57
2018-12-24T05:44:58.000Z,5.10
2018-12-24T05:47:27.138Z,5.03
2018-12-24T05:49:56.489Z,5.13
2018-12-24T05:52:25.841Z,5.20
2018-12-24T05:54:55.273Z,5.00
2018-12-24T05:57:24.649Z,4.50
2018-12-24T05:59:55.500Z,4.53
2018-12-24T06:02:25.349Z,4.47
2018-12-24T06:04:54.721Z,4.57
2018-12-24T06:07:24.456Z,4.53
2018-12-24T06:09:53.881Z,4.90
2018-12-24T06:12:23.465Z,4.93
2018-12-24T06:14:52.810Z,5.07
2018-12-24T06:17:22.186Z,4.70
2018-12-24T06:19:51.541Z,5.70
2018-12-24T06:22:20.883Z,5.43
2018-12-24T06:24:50.248Z,5.37
2018-12-24T06:27:19.846Z,5.40
2018-12-24T06:29:49.232Z,5.30
2018-12-24T06:32:18.341Z,4.87
2018-12-24T06:34:47.930Z,5.50
2018-12-24T06:37:17.381Z,5.93
2018-12-24T06:39:46.737Z,5.27
2018-12-24T06:42:18.174Z,5.10
2018-12-24T06:44:47.661Z,5.67
2018-12-24T06:47:16.787Z,5.40
2018-12-24T06:49:46.206Z,5.53
2018-12-24T06:52:15.316Z,4.93
2018-12-24T06:54:44.682Z,5.00
2018-12-24T06:57:14.657Z,5.27
2018-12-24T06:59:44.024Z,5.70
2018-12-24T07:02:13.176Z,5.10
2018-12-24T07:04:43.306Z,4.50
2018-12-24T07:07:12.422Z,5.07
2018-12-24T07:09:41.575Z,5.30
2018-12-24T07:12:10.728Z,5.13
2018-12-24T07:14:40.306Z,4.90
2018-12-24T07:17:09.417Z,5.13
2018-12-24T07:19:38.553Z,5.20
2018-12-24T07:22:07.665Z,5.33
2018-12-24T07:24:37.508Z,5.17
2018-12-24T07:27:07.104Z,5.30
2018-12-24T07:29:37.211Z,4.87
2018-12-24T07:32:06.839Z,5.83
2018-12-24T07:34:36.218Z,6.13
2018-12-24T07:37:05.569Z,5.50
2018-12-24T07:39:35.227Z,5.50
2018-12-24T07:42:04.866Z,5.57
2018-12-24T07:44:34.245Z,6.30
2018-12-24T07:47:04.017Z,5.70
2018-12-24T07:49:33.689Z,4.97
2018-12-24T07:52:03.157Z,5.77
2018-12-24T07:54:32.955Z,6.23
2018-12-24T07:57:02.316Z,4.83
2018-12-24T07:59:31.941Z,5.10
2018-12-24T08:02:01.800Z,4.13
2018-12-24T08:04:31.514Z,4.10
2018-12-24T08:07:01.188Z,4.03
2018-12-24T08:09:30.457Z,3.60
2018-12-24T08:12:00.181Z,3.83
2018-12-24T08:14:33.206Z,3.07
2018-12-24T08:17:01.458Z,3.03
2018-12-24T08:19:30.920Z,3.40
2018-12-24T08:22:00.601Z,3.47
2018-12-24T08:24:30.106Z,3.57
2018-12-24T08:26:59.575Z,3.80
2018-12-24T08:29:29.614Z,3.40
2018-12-24T08:31:59.232Z,3.10
2018-12-24T08:34:29.360Z,2.60
2018-12-24T08:36:58.969Z,3.00
2018-12-24T08:39:28.952Z,2.70
2018-12-24T08:41:58.158Z,2.90
2018-12-24T08:44:27.648Z,2.50
2018-12-24T08:46:57.196Z,2.30
2018-12-24T08:49:26.329Z,2.60
2018-12-24T08:51:56.084Z,2.53
2018-12-24T08:54:25.222Z,2.77
2018-12-24T08:56:54.891Z,2.83
2018-12-24T08:59:24.885Z,3.37
2018-12-24T09:01:54.529Z,3.33
2018-12-24T09:04:24.141Z,3.27
2018-12-24T09:06:53.521Z,3.00
2018-12-24T09:09:23.256Z,4.40
2018-12-24T09:11:52.412Z,4.50
2018-12-24T09:14:22.151Z,4.13
2018-12-24T09:16:51.961Z,3.70
2018-12-24T09:19:21.669Z,4.30
2018-12-24T09:21:51.394Z,4.20
2018-12-24T09:24:20.578Z,4.10
2018-12-24T09:26:50.025Z,5.37
2018-12-24T09:29:19.706Z,5.23
2018-12-24T09:31:49.091Z,5.23
2018-12-24T09:34:18.266Z,5.00
2018-12-24T09:36:47.791Z,4.93
2018-12-24T09:39:17.630Z,5.30
2018-12-24T09:41:47.382Z,5.83
2018-12-24T09:44:16.837Z,5.50
2018-12-24T09:46:47.284Z,6.00
2018-12-24T09:49:16.882Z,6.27
2018-12-24T09:51:46.373Z,6.43
2018-12-24T09:54:15.565Z,7.20
2018-12-24T09:56:45.405Z,6.90
2018-12-24T09:59:15.084Z,6.33
2018-12-24T10:01:44.961Z,6.90
2018-12-24T10:04:24.278Z,5.90
2018-12-24T10:06:54.053Z,6.37
2018-12-24T10:09:23.769Z,6.00
2018-12-24T10:11:53.298Z,6.00
2018-12-24T10:14:22.521Z,5.60
2018-12-24T10:16:52.517Z,5.90
2018-12-24T10:19:22.918Z,4.93
2018-12-24T10:21:52.858Z,5.40
2018-12-24T10:24:22.309Z,4.40
2018-12-24T10:26:51.704Z,4.70
2018-12-24T10:29:21.337Z,4.90
2018-12-24T10:31:50.540Z,5.23
2018-12-24T10:34:54.173Z,5.27
2018-12-24T10:37:23.377Z,4.80
2018-12-24T10:39:52.308Z,4.93
2018-12-24T10:42:21.563Z,4.80
2018-12-24T10:44:50.797Z,4.10
2018-12-24T10:47:20.131Z,4.53
2018-12-24T10:49:49.334Z,4.50
2018-12-24T10:52:18.290Z,4.30
2018-12-24T10:54:47.250Z,4.97
2018-12-24T10:57:16.942Z,4.23
2018-12-24T10:59:45.681Z,3.77
2018-12-24T11:02:14.410Z,3.70
2018-12-24T11:04:43.585Z,3.50
2018-12-24T11:07:12.653Z,3.63
2018-12-24T11:09:41.645Z,3.30
2018-12-24T11:12:10.394Z,2.80
2018-12-24T11:14:39.653Z,3.13
2018-12-24T11:17:09.095Z,2.67
2018-12-24T11:19:38.142Z,2.23
2018-12-24T11:22:06.844Z,2.33
2018-12-24T11:24:36.146Z,3.00
2018-12-24T11:27:05.115Z,3.17
2018-12-24T11:29:34.461Z,3.40
2018-12-24T11:32:05.193Z,3.00
2018-12-24T11:34:40.126Z,3.10
2018-12-24T11:37:10.361Z,3.47
2018-12-24T11:39:39.874Z,3.03
2018-12-24T11:42:08.887Z,3.10
2018-12-24T11:44:38.155Z,3.00
2018-12-24T11:47:07.068Z,3.23
2018-12-24T11:49:38.126Z,2.90
2018-12-24T11:52:08.444Z,3.30
2018-12-24T11:54:37.793Z,2.80
2018-12-24T11:57:06.868Z,3.17
2018-12-24T11:59:35.934Z,3.50
2018-12-24T12:02:09.899Z,2.87
2018-12-24T12:04:35.817Z,3.00
2018-12-24T12:07:04.601Z,3.03
2018-12-24T12:09:33.657Z,3.00
2018-12-24T12:12:02.648Z,2.93
2018-12-24T12:14:31.441Z,3.70
2018-12-24T12:17:00.564Z,2.90
2018-12-24T12:19:29.348Z,3.70
2018-12-24T12:21:58.089Z,2.90
2018-12-24T12:24:27.049Z,4.03
2018-12-24T12:26:56.355Z,3.73
2018-12-24T12:29:25.445Z,3.43
2018-12-24T12:31:54.410Z,3.40
2018-12-24T12:34:23.426Z,3.70
2018-12-24T12:36:52.193Z,6.50
2018-12-24T12:39:21.293Z,3.70
2018-12-24T12:41:50.474Z,7.30
2018-12-24T12:44:19.249Z,3.83
2018-12-24T12:46:48.393Z,3.53
2018-12-24T12:49:36.643Z,4.60
2018-12-24T12:52:06.130Z,3.60
2018-12-24T12:54:35.381Z,3.10
2018-12-24T12:57:04.181Z,3.27
2018-12-24T12:59:33.221Z,4.10
2018-12-24T13:02:02.461Z,3.03
2018-12-24T13:04:31.367Z,2.70
2018-12-24T13:07:00.175Z,2.80
2018-12-24T13:09:29.139Z,3.13
2018-12-24T13:11:58.218Z,3.30
2018-12-24T13:14:27.525Z,3.23
2018-12-24T13:16:56.234Z,2.80
2018-12-24T13:19:25.229Z,2.70
2018-12-24T13:21:53.971Z,2.87
2018-12-24T13:24:23.002Z,2.90
2018-12-24T13:26:52.025Z,2.33
2018-12-24T13:29:20.714Z,3.47
2018-12-24T13:31:49.435Z,3.50
2018-12-24T13:34:18.621Z,4.10
2018-12-24T13:36:47.583Z,2.90
2018-12-24T13:39:16.788Z,3.07
2018-12-24T13:41:45.481Z,3.23
2018-12-24T13:44:14.693Z,3.10
2018-12-24T13:46:43.664Z,3.40
2018-12-24T13:49:12.400Z,3.00
2018-12-24T13:51:41.146Z,3.00
2018-12-24T13:54:10.129Z,3.17
2018-12-24T13:56:39.078Z,2.80
2018-12-24T13:59:08.249Z,3.20
2018-12-24T14:01:37.254Z,3.57
2018-12-24T14:04:05.961Z,3.60
2018-12-24T14:06:34.941Z,3.40
2018-12-24T14:09:05.601Z,3.57
2018-12-24T14:11:34.362Z,3.50
2018-12-24T14:14:03.326Z,4.27
2018-12-24T14:16:32.329Z,3.80
2018-12-24T14:19:01.272Z,4.30
2018-12-24T14:21:29.981Z,5.80
2018-12-24T14:23:59.201Z,5.30
2018-12-24T14:26:28.211Z,4.60
2018-12-24T14:28:56.925Z,4.47
2018-12-24T14:31:25.859Z,4.40
2018-12-24T14:33:54.801Z,5.70
2018-12-24T14:36:23.546Z,10.40
2018-12-24T14:38:52.240Z,7.30
2018-12-24T14:41:20.980Z,7.90
2018-12-24T14:43:49.954Z,6.77
2018-12-24T14:46:25.553Z,5.90
2018-12-24T14:48:49.346Z,4.93
2018-12-24T14:51:18.089Z,4.70
2018-12-24T14:53:47.023Z,5.60
2018-12-24T14:56:15.964Z,5.17
2018-12-24T14:58:44.693Z,5.70
2018-12-24T15:01:13.379Z,6.23
2018-12-24T15:03:42.344Z,6.60
2018-12-24T15:06:11.756Z,6.73
2018-12-24T15:08:40.724Z,5.80
2018-12-24T15:11:09.429Z,6.40
2018-12-24T15:13:38.433Z,6.30
2018-12-24T15:16:07.384Z,7.00
2018-12-24T15:18:36.454Z,7.00
2018-12-24T15:21:05.170Z,5.93
2018-12-24T15:23:33.881Z,7.30
2018-12-24T15:26:02.589Z,6.90
2018-12-24T15:28:31.531Z,6.27
2018-12-24T15:31:00.272Z,6.53
2018-12-24T15:33:29.218Z,7.77
2018-12-24T15:35:57.972Z,7.40
2018-12-24T15:38:26.771Z,7.13
2018-12-24T15:40:55.936Z,5.27
2018-12-24T15:43:24.641Z,6.00
2018-12-24T15:45:53.621Z,7.20
2018-12-24T15:48:22.357Z,8.30
2018-12-24T15:50:51.082Z,8.67
2018-12-24T15:53:20.249Z,7.57
2018-12-24T15:55:48.976Z,7.77
2018-12-24T15:58:17.708Z,6.57
2018-12-24T16:00:46.433Z,6.73
2018-12-24T16:03:15.129Z,6.40
2018-12-24T16:05:44.102Z,6.70
2018-12-24T16:08:13.048Z,6.53
2018-12-24T16:10:42.253Z,5.70
2018-12-24T16:13:11.453Z,6.40
2018-12-24T16:15:40.399Z,6.20
2018-12-24T16:18:09.117Z,6.57
2018-12-24T16:20:38.153Z,6.97
2018-12-24T16:23:06.879Z,6.20
2018-12-24T16:25:35.570Z,6.60
2018-12-24T16:28:04.507Z,6.73
2018-12-24T16:30:33.937Z,6.27
2018-12-24T16:33:03.132Z,6.47
2018-12-24T16:35:31.824Z,7.80
2018-12-24T16:38:00.550Z,6.80
2018-12-24T16:40:29.529Z,8.50
2018-12-24T16:42:58.725Z,8.50
2018-12-24T16:45:27.674Z,10.37
2018-12-24T16:47:56.638Z,8.20
2018-12-24T16:50:25.581Z,7.90
2018-12-24T16:52:54.277Z,6.37
2018-12-24T16:55:22.997Z,6.40
2018-12-24T16:57:52.208Z,5.80
2018-12-24T17:00:20.913Z,8.27
2018-12-24T17:02:49.865Z,9.10
2018-12-24T17:05:18.569Z,5.23
2018-12-24T17:07:47.776Z,6.17
2018-12-24T17:10:16.722Z,6.07
2018-12-24T17:12:45.484Z,8.83
2018-12-24T17:15:14.450Z,6.93
2018-12-24T17:17:43.643Z,5.63
2018-12-24T17:20:12.607Z,6.23
2018-12-24T17:22:41.565Z,5.30
2018-12-24T17:25:10.885Z,8.80
2018-12-24T17:27:39.812Z,8.00
2018-12-24T17:30:08.760Z,7.00
2018-12-24T17:32:37.732Z,7.23
2018-12-24T17:35:06.504Z,5.47
2018-12-24T17:37:35.472Z,6.10
2018-12-24T17:40:04.588Z,4.73
2018-12-24T17:42:33.308Z,4.70
2018-12-24T17:45:04.094Z,5.83
2018-12-24T17:47:33.410Z,6.67
2018-12-24T17:50:02.214Z,9.17
2018-12-24T17:52:30.917Z,6.20
2018-12-24T17:54:59.635Z,6.80
2018-12-24T17:57:28.322Z,6.27
2018-12-24T17:59:57.537Z,6.20
2018-12-24T18:02:26.489Z,7.13
2018-12-24T18:04:55.493Z,7.20
2018-12-24T18:07:24.496Z,7.50
2018-12-24T18:09:53.189Z,7.40
2018-12-24T18:12:22.405Z,8.57
2018-12-24T18:14:51.356Z,8.40
2018-12-24T18:17:24.677Z,8.20
2018-12-24T18:19:50.997Z,6.90
2018-12-24T18:22:19.730Z,7.10
2018-12-24T18:24:48.489Z,7.13
2018-12-24T18:27:17.301Z,7.10
2018-12-24T18:29:46.350Z,7.10
2018-12-24T18:32:15.807Z,5.40
2018-12-24T18:34:44.550Z,9.00
2018-12-24T18:37:13.241Z,8.37
2018-12-24T18:39:42.464Z,7.57
2018-12-24T18:42:11.163Z,7.90
2018-12-24T18:44:40.374Z,7.83
2018-12-24T18:47:09.329Z,6.40
2018-12-24T18:49:38.056Z,6.77
2018-12-24T18:52:06.773Z,7.10
2018-12-24T18:54:38.525Z,6.20
2018-12-24T18:57:07.489Z,6.87
2018-12-24T18:59:36.270Z,7.27
2018-12-24T19:02:05.818Z,6.43
2018-12-24T19:04:36.018Z,6.90
2018-12-24T19:07:04.744Z,7.50
2018-12-24T19:09:33.698Z,8.23
2018-12-24T19:12:02.668Z,7.80
2018-12-24T19:14:31.879Z,8.20
2018-12-24T19:17:00.825Z,7.97
2018-12-24T19:19:29.789Z,6.80
2018-12-24T19:21:59.024Z,7.70
2018-12-24T19:24:28.220Z,6.50
2018-12-24T19:26:57.234Z,6.63
2018-12-24T19:29:25.959Z,6.40
2018-12-24T19:31:54.945Z,7.10
2018-12-24T19:34:23.642Z,5.83
2018-12-24T19:36:52.378Z,6.20
2018-12-24T19:39:21.336Z,6.57
2018-12-24T19:41:50.334Z,7.70
2018-12-24T19:44:19.535Z,9.53
2018-12-24T19:46:48.522Z,8.20
2018-12-24T19:49:17.461Z,8.83
2018-12-24T19:51:46.688Z,8.37
2018-12-24T19:54:15.649Z,6.93
2018-12-24T19:56:44.602Z,8.43
2018-12-24T19:59:14.098Z,7.70
2018-12-24T20:01:42.869Z,8.03
2018-12-24T20:04:12.066Z,7.47
2018-12-24T20:06:41.045Z,8.50
2018-12-24T20:09:09.770Z,9.10
2018-12-24T20:11:38.467Z,8.87
2018-12-24T20:14:07.193Z,10.27
2018-12-24T20:16:36.154Z,10.30
2018-12-24T20:19:04.890Z,9.67
2018-12-24T20:21:33.821Z,8.90
2018-12-24T20:24:02.541Z,7.80
2018-12-24T20:26:31.253Z,9.23
2018-12-24T20:29:00.223Z,10.60
2018-12-24T20:31:28.968Z,10.93
2018-12-24T20:33:57.970Z,11.87
2018-12-24T20:36:26.929Z,11.40
2018-12-24T20:38:55.873Z,15.90
2018-12-24T20:41:24.609Z,9.93
2018-12-24T20:43:54.094Z,10.47
2018-12-24T20:46:23.032Z,11.50
2018-12-24T20:48:52.610Z,11.00
2018-12-24T20:51:21.691Z,10.43
2018-12-24T20:53:51.134Z,10.00
2018-12-24T20:56:19.845Z,9.33
2018-12-24T20:58:48.806Z,9.03
2018-12-24T21:01:17.509Z,8.87
2018-12-24T21:03:46.237Z,9.17
2018-12-24T21:06:14.985Z,9.80
2018-12-24T21:08:43.721Z,9.30
2018-12-24T21:11:12.506Z,8.73
2018-12-24T21:13:41.737Z,9.53
2018-12-24T21:16:10.954Z,9.37
2018-12-24T21:18:41.576Z,9.57
2018-12-24T21:21:10.941Z,10.17
2018-12-24T21:23:39.917Z,10.80
2018-12-24T21:26:08.637Z,10.43
2018-12-24T21:28:37.391Z,10.67
2018-12-24T21:31:06.333Z,9.73
2018-12-24T21:33:35.310Z,10.77
2018-12-24T21:36:04.317Z,10.93
2018-12-24T21:38:33.307Z,10.67
2018-12-24T21:41:02.286Z,10.00
2018-12-24T21:43:31.253Z,10.20
2018-12-24T21:45:59.993Z,9.53
2018-12-24T21:48:28.735Z,9.07
2018-12-24T21:50:57.438Z,9.53
2018-12-24T21:53:27.070Z,8.60
2018-12-24T21:55:55.795Z,8.10
2018-12-24T21:58:24.684Z,9.03
2018-12-24T22:00:54.106Z,7.40
2018-12-24T22:03:23.153Z,8.83
2018-12-24T22:05:52.132Z,8.57
2018-12-24T22:08:20.894Z,8.30
2018-12-24T22:10:49.620Z,8.43
2018-12-24T22:13:18.339Z,8.30
2018-12-24T22:15:48.176Z,8.30
2018-12-24T22:18:17.142Z,9.10
2018-12-24T22:20:46.106Z,9.73
2018-12-24T22:23:15.607Z,12.27
2018-12-24T22:25:45.442Z,15.80
2018-12-24T22:28:14.412Z,13.90
2018-12-24T22:30:43.141Z,12.90
2018-12-24T22:33:11.845Z,12.67
2018-12-24T22:35:40.585Z,11.70
2018-12-24T22:38:09.295Z,12.00
2018-12-24T22:40:38.458Z,10.43
2018-12-24T22:43:07.425Z,9.80
2018-12-24T22:45:36.144Z,9.70
2018-12-24T22:48:05.117Z,10.30
2018-12-24T22:50:34.875Z,9.77
2018-12-24T22:53:03.610Z,8.77
2018-12-24T22:55:32.623Z,10.00
2018-12-24T22:58:01.565Z,10.17
2018-12-24T23:00:37.564Z,9.20
2018-12-24T23:03:06.312Z,9.50
2018-12-24T23:05:35.254Z,8.93
2018-12-24T23:08:03.996Z,9.60
2018-12-24T23:10:32.944Z,9.40
2018-12-24T23:13:01.905Z,9.57
2018-12-24T23:15:30.625Z,8.70
2018-12-24T23:17:59.392Z,8.07
2018-12-24T23:20:28.341Z,8.10
2018-12-24T23:22:57.074Z,9.07
2018-12-24T23:25:26.104Z,8.10
2018-12-24T23:27:54.816Z,7.37
2018-12-24T23:30:23.773Z,8.43
2018-12-24T23:32:52.505Z,7.83
2018-12-24T23:35:21.458Z,9.07
2018-12-24T23:37:50.190Z,7.60
2018-12-24T23:40:18.886Z,9.27
2018-12-24T23:42:47.932Z,9.40
2018-12-24T23:45:16.881Z,9.30
2018-12-24T23:47:45.581Z,9.10
2018-12-24T23:50:14.384Z,7.87
2018-12-24T23:52:43.132Z,8.80
2018-12-24T23:55:12.350Z,8.50
2018-12-24T23:57:41.042Z,8.40
